createdAt,value
2023-05-09T00:04:20.638Z,1.77
2023-05-09T00:14:21.959Z,1.60
2023-05-09T00:24:23.182Z,1.70
2023-05-09T00:34:24.426Z,1.48
2023-05-09T00:44:25.724Z,1.30
2023-05-09T00:54:27.020Z,1.40
2023-05-09T01:04:28.245Z,1.42
2023-05-09T01:14:29.516Z,1.30
2023-05-09T01:24:30.799Z,1.15
2023-05-09T01:34:32.097Z,1.30
2023-05-09T01:44:33.307Z,1.20
2023-05-09T01:54:34.584Z,1.00
2023-05-09T02:04:35.884Z,1.10
2023-05-09T02:14:37.174Z,1.17
2023-05-09T02:24:38.447Z,1.08
2023-05-09T02:34:39.687Z,1.00
2023-05-09T02:44:40.983Z,1.13
2023-05-09T02:54:42.265Z,1.05
2023-05-09T03:04:43.510Z,1.30
2023-05-09T03:14:44.768Z,1.20
2023-05-09T03:24:45.993Z,1.13
2023-05-09T03:34:47.210Z,1.00
2023-05-09T03:44:48.452Z,1.10
2023-05-09T03:54:49.728Z,1.10
2023-05-09T04:04:50.998Z,1.10
2023-05-09T04:14:52.250Z,1.20
2023-05-09T04:24:53.559Z,0.98
2023-05-09T04:34:54.829Z,1.00
2023-05-09T04:44:56.043Z,1.10
2023-05-09T04:54:57.294Z,0.90
2023-05-09T05:05:10.181Z,1.10
2023-05-09T05:15:13.293Z,1.05
2023-05-09T05:25:14.886Z,0.90
2023-05-09T05:35:16.595Z,1.13
2023-05-09T05:45:18.117Z,0.70
2023-05-09T05:55:19.478Z,0.93
2023-05-09T06:05:20.818Z,0.90
2023-05-09T06:15:22.064Z,1.20
2023-05-09T06:25:23.377Z,0.90
2023-05-09T06:35:45.538Z,0.98
2023-05-09T06:45:46.782Z,0.90
2023-05-09T06:55:48.077Z,0.90
2023-05-09T07:05:49.400Z,0.80
2023-05-09T07:15:50.715Z,0.88
2023-05-09T07:25:52.021Z,0.80
2023-05-09T07:35:53.307Z,0.80
2023-05-09T07:45:54.661Z,0.80
2023-05-09T07:55:56.008Z,0.77
2023-05-09T08:05:57.256Z,0.57
2023-05-09T08:15:58.533Z,0.80
2023-05-09T08:25:59.866Z,0.80
2023-05-09T08:36:01.165Z,0.73
2023-05-09T08:46:02.468Z,0.60
2023-05-09T08:56:03.777Z,0.55
2023-05-09T09:06:05.073Z,0.63
2023-05-09T09:16:06.421Z,0.70
2023-05-09T09:26:07.714Z,0.60
2023-05-09T09:36:09.002Z,0.50
2023-05-09T09:46:10.270Z,0.50
2023-05-09T09:56:11.530Z,0.50
2023-05-09T10:06:12.942Z,0.50
2023-05-09T10:16:14.392Z,0.60
2023-05-09T10:26:15.771Z,0.40
2023-05-09T10:36:17.059Z,0.47
2023-05-09T10:46:21.438Z,0.47
2023-05-09T10:56:22.812Z,0.55
2023-05-09T11:06:24.088Z,0.50
2023-05-09T11:16:25.389Z,0.50
2023-05-09T11:26:26.711Z,0.40
2023-05-09T11:36:27.956Z,0.50
2023-05-09T11:46:29.411Z,0.65
2023-05-09T11:56:30.803Z,0.30
2023-05-09T12:06:32.054Z,0.40
2023-05-09T12:16:33.398Z,0.45
2023-05-09T12:26:34.648Z,0.50
2023-05-09T12:36:35.998Z,0.30
2023-05-09T12:46:39.337Z,0.30
2023-05-09T12:56:40.656Z,0.35
2023-05-09T13:06:41.934Z,0.30
2023-05-09T13:16:43.473Z,0.30
2023-05-09T13:26:44.765Z,0.40
2023-05-09T13:36:46.044Z,0.40
2023-05-09T13:46:47.384Z,0.20
2023-05-09T13:56:48.684Z,0.20
2023-05-09T14:06:49.927Z,0.30
2023-05-09T14:16:52.518Z,0.30
2023-05-09T14:26:53.823Z,0.30
2023-05-09T14:36:55.071Z,0.30
2023-05-09T14:46:56.428Z,0.38
2023-05-09T14:56:57.712Z,0.20
2023-05-09T15:06:59.187Z,0.20
2023-05-09T15:17:00.660Z,0.30
2023-05-09T15:27:02.031Z,0.35
2023-05-09T15:37:03.273Z,0.30
2023-05-09T15:47:04.643Z,0.30
2023-05-09T15:57:05.947Z,0.30
2023-05-09T16:07:07.282Z,0.28
2023-05-09T16:17:08.527Z,0.20
2023-05-09T16:27:09.788Z,0.20
2023-05-09T16:37:11.060Z,0.40
2023-05-09T16:47:12.336Z,0.22
2023-05-09T16:57:13.583Z,0.20
2023-05-09T17:07:14.829Z,0.43
2023-05-09T17:17:16.158Z,0.20
2023-05-09T17:27:17.461Z,0.32
2023-05-09T17:37:19.028Z,0.20
2023-05-09T17:47:20.297Z,0.30
2023-05-09T17:57:21.535Z,0.25
2023-05-09T18:07:22.811Z,0.30
2023-05-09T18:17:24.069Z,0.25
2023-05-09T18:27:25.344Z,0.32
2023-05-09T18:37:26.621Z,0.22
2023-05-09T18:47:27.927Z,0.45
2023-05-09T18:57:29.194Z,0.30
2023-05-09T19:07:30.487Z,0.20
2023-05-09T19:17:31.821Z,0.30
2023-05-09T19:27:33.079Z,0.30
2023-05-09T19:37:34.340Z,0.40
2023-05-09T19:47:35.706Z,0.20
2023-05-09T19:57:37.010Z,0.30
2023-05-09T20:07:38.237Z,0.45
2023-05-09T20:17:39.528Z,0.30
2023-05-09T20:27:40.765Z,0.32
2023-05-09T20:37:42.273Z,0.30
2023-05-09T20:47:43.531Z,0.20
2023-05-09T20:57:44.796Z,0.30
2023-05-09T21:07:46.076Z,0.30
2023-05-09T21:17:47.325Z,0.30
2023-05-09T21:27:48.602Z,0.32
2023-05-09T21:37:49.851Z,0.30
2023-05-09T21:47:51.221Z,0.28
2023-05-09T21:57:52.490Z,0.30
2023-05-09T22:07:53.766Z,0.25
2023-05-09T22:17:55.040Z,0.20
2023-05-09T22:27:56.287Z,0.30
2023-05-09T22:37:57.563Z,0.30
2023-05-09T22:47:58.838Z,0.20
2023-05-09T22:58:00.108Z,0.30
2023-05-09T23:08:01.375Z,0.30
2023-05-09T23:18:02.715Z,0.20
2023-05-09T23:28:03.978Z,0.30
2023-05-09T23:38:05.187Z,0.22
2023-05-09T23:48:06.502Z,0.47
2023-05-09T23:58:07.804Z,0.30
